Have a Safe July 4th! 

Flight Track Log - Related Links

Times and Time Zones

All times are in EDT time to prevent confusion due to time zone crossing. See the DAL3720 flight status page for this flight to view local times or setup timezone preferences in your user account.

Time Position Orientation Groundspeed Altitude Reporting Facility
EDT Latitude Longitude Course Direction KTS MPH feet Rate Location/Type
Wed 10:25:02 AM 44.8236 -93.2286 214° Southwest 208 239 3,200  Level Minneapolis Center
Wed 10:26:04 AM 44.7814 -93.2692 214° Southwest 191 220 4,900 1,790 Climbing Minneapolis Center
Wed 10:27:06 AM 44.7264 -93.3181 212° Southwest 236 272 6,900 1,876 Climbing Minneapolis Center
Wed 10:32:15 AM 44.3528 -93.6650 153° Southeast 356 410 16,500 1,751 Climbing Minneapolis Center
Wed 10:33:16 AM 44.2650 -93.7442 213° Southwest 377 434 17,700 1,220 Climbing Minneapolis Center
Wed 10:34:18 AM 44.1664 -93.8136 207° Southwest 405 466 19,000 1,210 Climbing Minneapolis Center
Wed 10:35:20 AM 44.0533 -93.8492 193° South 418 481 20,200 1,306 Climbing Minneapolis Center
Wed 10:36:22 AM 43.9153 -93.8925 193° South 421 484 21,700 1,258 Climbing Minneapolis Center
Wed 10:37:00 AM 43.9044 -93.9675 200° South  Level Estimated
Wed 10:37:24 AM 43.7992 -93.9300 193° South 425 489 22,800  Level Minneapolis Center
Wed 10:38:00 AM 43.8194 -93.9075 153° Southeast  Level FlightAware Approximate
Wed 10:38:26 AM 43.6797 -93.9664 192° South 435 501 23,500  Level Minneapolis Center
Wed 10:39:28 AM 43.5583 -94.0053 193° South 444 511 24,200 714 Climbing Minneapolis Center
Wed 10:41:31 AM 43.2944 -94.0869 193° South 455 524 25,700 584 Climbing Minneapolis Center
Wed 10:42:33 AM 43.1714 -94.1250 193° South 455 524 26,000 145 Climbing Minneapolis Center
Wed 10:43:35 AM 43.0450 -94.1650 193° South 464 534 26,000  Level Minneapolis Center
Wed 10:45:39 AM 42.7642 -94.2494 192° South 472 543 26,000 -73 Level Minneapolis Center
Wed 10:47:43 AM 42.5194 -94.3664 199° South 469 540 25,700 -484 Descending Minneapolis Center
Wed 10:48:45 AM 42.4050 -94.4564 210° Southwest 453 521 24,500 -876 Descending Minneapolis Center
Wed 10:50:48 AM 42.1928 -94.6192 206° Southwest 440 506 23,000 -876 Descending Minneapolis Center
Wed 10:51:50 AM 42.0853 -94.7011 210° Southwest 441 507 21,800 -1,214 Descending Minneapolis Center
Wed 10:55:05 AM 41.7464 -94.9808 210° Southwest 423 487 17,800 -1,214 Descending Minneapolis Center
Wed 10:56:12 AM 41.6389 -95.0592 209° Southwest 409 471 16,500 -1,105 Descending Minneapolis Center
Wed 10:56:59 AM 41.5533 -95.1025 201° Southwest 410 472 15,700 -1,100 Descending Minneapolis Center
Wed 10:57:12 AM 41.5336 -95.1342 230° Southwest 399 459 15,400 -1,220 Descending Minneapolis Center
Wed 10:59:02 AM 41.4836 -95.3439 252° West 333 383 13,200 -1,308 Descending Minneapolis Center
Wed 11:01:06 AM 41.4669 -95.5364 263° West 293 337 10,300 -1,500 Descending Minneapolis Center
Wed 11:01:58 AM 41.4664 -95.6408 270° West 261 300 8,800 -1,597 Descending Minneapolis Center
Wed 11:03:10 AM 41.4642 -95.7478 268° West 263 303 7,000 -1,579 Descending Minneapolis Center
Wed 11:04:11 AM 41.4681 -95.8494 273° West 244 281 5,300 -1,670 Descending Minneapolis Center
Wed 11:05:05 AM 41.4564 -95.9258 259° West 228 262 3,800 -1,156 Descending Minneapolis Center
Wed 11:06:00 AM 41.4242 -95.9797 231° Southwest 187 215 3,200 -545 Descending Minneapolis Center
Wed 11:07:17 AM 41.3761 -95.9644 217° Southwest 180 207 2,600 -595 Descending Minneapolis Center
Wed 11:08:01 AM 41.3486 -95.9439 151° Southeast 134 154 2,000 -780 Descending Minneapolis Center
Wed 11:09:20 AM 41.3128 -95.9047 141° Southeast 144 166 1,000 -759 Descending Minneapolis Center

Login

Don't have an account? Register now (free) for customized features, flight alerts, and more!